sensor_id;sensor_type;location;lat;lon;timestamp;temperature;humidity
28837;DHT22;50669;50.982;11.022;2024-02-21T00:01:21;19.40;74.90
28837;DHT22;50669;50.982;11.022;2024-02-21T00:03:49;19.40;75.00
28837;DHT22;50669;50.982;11.022;2024-02-21T00:06:15;19.40;75.00
28837;DHT22;50669;50.982;11.022;2024-02-21T00:08:40;19.40;75.10
28837;DHT22;50669;50.982;11.022;2024-02-21T00:11:06;19.40;75.10
28837;DHT22;50669;50.982;11.022;2024-02-21T00:13:32;19.40;75.20
28837;DHT22;50669;50.982;11.022;2024-02-21T00:16:00;19.40;75.20
28837;DHT22;50669;50.982;11.022;2024-02-21T00:18:28;19.40;75.30
28837;DHT22;50669;50.982;11.022;2024-02-21T00:20:54;19.40;75.40
28837;DHT22;50669;50.982;11.022;2024-02-21T00:23:19;19.40;75.50
28837;DHT22;50669;50.982;11.022;2024-02-21T00:25:45;19.40;75.50
28837;DHT22;50669;50.982;11.022;2024-02-21T00:28:11;19.40;75.60
28837;DHT22;50669;50.982;11.022;2024-02-21T00:30:37;19.40;75.70
28837;DHT22;50669;50.982;11.022;2024-02-21T00:33:03;19.40;75.70
28837;DHT22;50669;50.982;11.022;2024-02-21T00:35:31;19.50;75.90
28837;DHT22;50669;50.982;11.022;2024-02-21T00:37:59;19.50;75.90
28837;DHT22;50669;50.982;11.022;2024-02-21T00:40:25;19.50;76.10
28837;DHT22;50669;50.982;11.022;2024-02-21T00:42:51;19.40;76.10
28837;DHT22;50669;50.982;11.022;2024-02-21T00:45:16;19.50;76.20
28837;DHT22;50669;50.982;11.022;2024-02-21T00:47:42;19.50;76.30
28837;DHT22;50669;50.982;11.022;2024-02-21T00:50:08;19.50;76.40
28837;DHT22;50669;50.982;11.022;2024-02-21T00:52:34;19.50;76.60
28837;DHT22;50669;50.982;11.022;2024-02-21T00:55:02;19.50;76.80
28837;DHT22;50669;50.982;11.022;2024-02-21T00:57:30;19.50;76.80
28837;DHT22;50669;50.982;11.022;2024-02-21T00:59:57;19.50;76.90
28837;DHT22;50669;50.982;11.022;2024-02-21T01:02:25;19.50;77.00
28837;DHT22;50669;50.982;11.022;2024-02-21T01:04:51;19.50;77.00
28837;DHT22;50669;50.982;11.022;2024-02-21T01:07:17;19.50;77.10
28837;DHT22;50669;50.982;11.022;2024-02-21T01:09:47;19.50;77.20
28837;DHT22;50669;50.982;11.022;2024-02-21T01:12:15;19.50;77.10
28837;DHT22;50669;50.982;11.022;2024-02-21T01:14:40;19.50;77.20
28837;DHT22;50669;50.982;11.022;2024-02-21T01:17:06;19.50;77.30
28837;DHT22;50669;50.982;11.022;2024-02-21T01:19:34;19.50;77.30
28837;DHT22;50669;50.982;11.022;2024-02-21T01:22:02;19.50;77.30
28837;DHT22;50669;50.982;11.022;2024-02-21T01:24:30;19.50;77.30
28837;DHT22;50669;50.982;11.022;2024-02-21T01:26:56;19.50;77.30
28837;DHT22;50669;50.982;11.022;2024-02-21T01:29:22;19.50;77.30
28837;DHT22;50669;50.982;11.022;2024-02-21T01:31:47;19.50;77.40
28837;DHT22;50669;50.982;11.022;2024-02-21T01:34:13;19.50;77.40
28837;DHT22;50669;50.982;11.022;2024-02-21T01:36:41;19.50;77.50
28837;DHT22;50669;50.982;11.022;2024-02-21T01:39:07;19.50;77.50
28837;DHT22;50669;50.982;11.022;2024-02-21T01:41:33;19.50;77.50
28837;DHT22;50669;50.982;11.022;2024-02-21T01:43:59;19.50;77.50
28837;DHT22;50669;50.982;11.022;2024-02-21T01:46:24;19.50;77.50
28837;DHT22;50669;50.982;11.022;2024-02-21T01:48:56;19.50;77.60
28837;DHT22;50669;50.982;11.022;2024-02-21T01:51:24;19.50;77.60
28837;DHT22;50669;50.982;11.022;2024-02-21T01:53:51;19.60;77.70
28837;DHT22;50669;50.982;11.022;2024-02-21T01:56:17;19.50;77.70
28837;DHT22;50669;50.982;11.022;2024-02-21T01:58:45;19.60;77.80
28837;DHT22;50669;50.982;11.022;2024-02-21T02:01:12;19.50;77.80
28837;DHT22;50669;50.982;11.022;2024-02-21T02:03:37;19.50;77.80
28837;DHT22;50669;50.982;11.022;2024-02-21T02:06:05;19.60;77.90
28837;DHT22;50669;50.982;11.022;2024-02-21T02:08:34;19.60;78.00
28837;DHT22;50669;50.982;11.022;2024-02-21T02:11:03;19.60;78.10
28837;DHT22;50669;50.982;11.022;2024-02-21T02:13:28;19.60;78.10
28837;DHT22;50669;50.982;11.022;2024-02-21T02:15:57;19.60;78.20
28837;DHT22;50669;50.982;11.022;2024-02-21T02:18:22;19.60;78.20
28837;DHT22;50669;50.982;11.022;2024-02-21T02:20:48;19.50;78.20
28837;DHT22;50669;50.982;11.022;2024-02-21T02:25:51;19.60;78.40
28837;DHT22;50669;50.982;11.022;2024-02-21T02:28:20;19.60;78.40
28837;DHT22;50669;50.982;11.022;2024-02-21T02:30:46;19.60;78.40
28837;DHT22;50669;50.982;11.022;2024-02-21T02:33:12;19.60;78.40
28837;DHT22;50669;50.982;11.022;2024-02-21T02:35:40;19.60;78.40
28837;DHT22;50669;50.982;11.022;2024-02-21T02:38:08;19.60;78.60
28837;DHT22;50669;50.982;11.022;2024-02-21T02:40:37;19.60;78.60
28837;DHT22;50669;50.982;11.022;2024-02-21T02:43:03;19.60;78.60
28837;DHT22;50669;50.982;11.022;2024-02-21T02:45:29;19.60;78.70
28837;DHT22;50669;50.982;11.022;2024-02-21T02:47:57;19.60;78.70
28837;DHT22;50669;50.982;11.022;2024-02-21T02:50:24;19.60;78.80
28837;DHT22;50669;50.982;11.022;2024-02-21T02:52:49;19.60;78.90
28837;DHT22;50669;50.982;11.022;2024-02-21T02:55:15;19.60;79.10
28837;DHT22;50669;50.982;11.022;2024-02-21T02:57:46;19.60;79.10
28837;DHT22;50669;50.982;11.022;2024-02-21T03:00:13;19.60;79.30
28837;DHT22;50669;50.982;11.022;2024-02-21T03:02:42;19.60;79.30
28837;DHT22;50669;50.982;11.022;2024-02-21T03:05:17;19.60;79.30
28837;DHT22;50669;50.982;11.022;2024-02-21T03:07:43;19.60;79.30
28837;DHT22;50669;50.982;11.022;2024-02-21T03:10:09;19.60;79.30
28837;DHT22;50669;50.982;11.022;2024-02-21T03:12:35;19.60;79.30
28837;DHT22;50669;50.982;11.022;2024-02-21T03:15:01;19.60;79.30
28837;DHT22;50669;50.982;11.022;2024-02-21T03:17:32;19.60;79.30
28837;DHT22;50669;50.982;11.022;2024-02-21T03:20:02;19.60;79.40
28837;DHT22;50669;50.982;11.022;2024-02-21T03:22:31;19.60;79.40
28837;DHT22;50669;50.982;11.022;2024-02-21T03:24:56;19.70;79.40
28837;DHT22;50669;50.982;11.022;2024-02-21T03:27:24;19.70;79.40
28837;DHT22;50669;50.982;11.022;2024-02-21T03:29:50;19.60;79.40
28837;DHT22;50669;50.982;11.022;2024-02-21T03:32:16;19.70;79.40
28837;DHT22;50669;50.982;11.022;2024-02-21T03:34:44;19.70;79.30
28837;DHT22;50669;50.982;11.022;2024-02-21T03:37:09;19.70;79.40
28837;DHT22;50669;50.982;11.022;2024-02-21T03:39:35;19.70;79.40
28837;DHT22;50669;50.982;11.022;2024-02-21T03:42:04;19.70;79.40
28837;DHT22;50669;50.982;11.022;2024-02-21T03:44:33;19.70;79.30
28837;DHT22;50669;50.982;11.022;2024-02-21T03:47:01;19.70;79.30
28837;DHT22;50669;50.982;11.022;2024-02-21T03:49:27;19.70;79.30
28837;DHT22;50669;50.982;11.022;2024-02-21T03:51:53;19.60;79.30
28837;DHT22;50669;50.982;11.022;2024-02-21T03:54:21;19.70;79.40
28837;DHT22;50669;50.982;11.022;2024-02-21T03:56:49;19.70;79.40
28837;DHT22;50669;50.982;11.022;2024-02-21T03:59:15;19.70;79.30
28837;DHT22;50669;50.982;11.022;2024-02-21T04:01:40;19.70;79.30
28837;DHT22;50669;50.982;11.022;2024-02-21T04:04:09;19.70;79.40
28837;DHT22;50669;50.982;11.022;2024-02-21T04:06:45;19.70;79.30
28837;DHT22;50669;50.982;11.022;2024-02-21T04:09:11;19.70;79.30
28837;DHT22;50669;50.982;11.022;2024-02-21T04:11:39;19.70;79.40
28837;DHT22;50669;50.982;11.022;2024-02-21T04:14:04;19.70;79.50
28837;DHT22;50669;50.982;11.022;2024-02-21T04:16:32;19.70;80.20
28837;DHT22;50669;50.982;11.022;2024-02-21T04:18:58;19.70;79.50
28837;DHT22;50669;50.982;11.022;2024-02-21T04:21:24;19.70;79.60
28837;DHT22;50669;50.982;11.022;2024-02-21T04:23:50;19.70;79.60
28837;DHT22;50669;50.982;11.022;2024-02-21T04:26:18;19.70;79.60
28837;DHT22;50669;50.982;11.022;2024-02-21T04:28:48;19.60;79.80
28837;DHT22;50669;50.982;11.022;2024-02-21T04:31:16;19.70;80.00
28837;DHT22;50669;50.982;11.022;2024-02-21T04:33:41;19.70;80.10
28837;DHT22;50669;50.982;11.022;2024-02-21T04:36:10;19.70;80.10
28837;DHT22;50669;50.982;11.022;2024-02-21T04:38:35;19.70;80.10
28837;DHT22;50669;50.982;11.022;2024-02-21T04:41:01;19.70;80.10
28837;DHT22;50669;50.982;11.022;2024-02-21T04:43:27;19.70;80.30
28837;DHT22;50669;50.982;11.022;2024-02-21T04:45:54;19.70;80.40
28837;DHT22;50669;50.982;11.022;2024-02-21T04:48:24;19.70;80.50
28837;DHT22;50669;50.982;11.022;2024-02-21T04:50:50;19.60;80.50
28837;DHT22;50669;50.982;11.022;2024-02-21T04:53:15;19.70;80.70
28837;DHT22;50669;50.982;11.022;2024-02-21T04:55:41;19.70;80.80
28837;DHT22;50669;50.982;11.022;2024-02-21T04:58:08;19.70;80.80
28837;DHT22;50669;50.982;11.022;2024-02-21T05:00:33;19.70;80.80
28837;DHT22;50669;50.982;11.022;2024-02-21T05:03:01;19.70;80.80
28837;DHT22;50669;50.982;11.022;2024-02-21T05:05:29;19.70;80.90
28837;DHT22;50669;50.982;11.022;2024-02-21T05:07:55;19.70;81.00
28837;DHT22;50669;50.982;11.022;2024-02-21T05:10:21;19.70;80.90
28837;DHT22;50669;50.982;11.022;2024-02-21T05:12:51;19.70;80.90
28837;DHT22;50669;50.982;11.022;2024-02-21T05:15:19;19.70;81.00
28837;DHT22;50669;50.982;11.022;2024-02-21T05:17:45;19.70;81.10
28837;DHT22;50669;50.982;11.022;2024-02-21T05:20:13;19.70;81.20
28837;DHT22;50669;50.982;11.022;2024-02-21T05:22:38;19.70;81.20
28837;DHT22;50669;50.982;11.022;2024-02-21T05:25:04;19.70;81.20
28837;DHT22;50669;50.982;11.022;2024-02-21T05:27:30;19.70;81.20
28837;DHT22;50669;50.982;11.022;2024-02-21T05:29:55;19.70;81.20
28837;DHT22;50669;50.982;11.022;2024-02-21T05:32:21;19.70;81.20
28837;DHT22;50669;50.982;11.022;2024-02-21T05:34:51;19.70;81.10
28837;DHT22;50669;50.982;11.022;2024-02-21T05:37:19;19.70;81.30
28837;DHT22;50669;50.982;11.022;2024-02-21T05:39:44;19.40;73.20
28837;DHT22;50669;50.982;11.022;2024-02-21T05:42:13;18.80;72.40
28837;DHT22;50669;50.982;11.022;2024-02-21T05:44:38;18.30;74.70
28837;DHT22;50669;50.982;11.022;2024-02-21T05:47:04;17.90;75.40
28837;DHT22;50669;50.982;11.022;2024-02-21T05:49:30;17.60;75.80
28837;DHT22;50669;50.982;11.022;2024-02-21T05:51:56;17.30;75.90
28837;DHT22;50669;50.982;11.022;2024-02-21T05:54:21;17.00;76.10
28837;DHT22;50669;50.982;11.022;2024-02-21T05:56:50;16.80;75.30
28837;DHT22;50669;50.982;11.022;2024-02-21T05:59:15;16.60;76.50
28837;DHT22;50669;50.982;11.022;2024-02-21T06:01:43;16.40;77.10
28837;DHT22;50669;50.982;11.022;2024-02-21T06:04:12;16.40;79.60
28837;DHT22;50669;50.982;11.022;2024-02-21T06:06:37;16.80;79.00
28837;DHT22;50669;50.982;11.022;2024-02-21T06:09:03;17.30;81.40
28837;DHT22;50669;50.982;11.022;2024-02-21T06:11:29;17.70;81.20
28837;DHT22;50669;50.982;11.022;2024-02-21T06:13:55;18.10;80.80
28837;DHT22;50669;50.982;11.022;2024-02-21T06:16:23;18.40;80.30
28837;DHT22;50669;50.982;11.022;2024-02-21T06:18:51;18.70;79.90
28837;DHT22;50669;50.982;11.022;2024-02-21T06:21:17;18.90;79.40
28837;DHT22;50669;50.982;11.022;2024-02-21T06:23:42;19.00;79.00
28837;DHT22;50669;50.982;11.022;2024-02-21T06:26:08;19.20;78.70
28837;DHT22;50669;50.982;11.022;2024-02-21T06:28:33;19.30;78.40
28837;DHT22;50669;50.982;11.022;2024-02-21T06:31:01;19.50;78.20
28837;DHT22;50669;50.982;11.022;2024-02-21T06:33:27;19.50;77.90
28837;DHT22;50669;50.982;11.022;2024-02-21T06:35:55;19.60;77.70
28837;DHT22;50669;50.982;11.022;2024-02-21T06:38:20;19.60;77.50
28837;DHT22;50669;50.982;11.022;2024-02-21T06:40:46;19.70;77.40
28837;DHT22;50669;50.982;11.022;2024-02-21T06:43:18;19.80;77.30
28837;DHT22;50669;50.982;11.022;2024-02-21T06:45:45;19.80;77.10
28837;DHT22;50669;50.982;11.022;2024-02-21T06:48:16;19.80;77.00
28837;DHT22;50669;50.982;11.022;2024-02-21T06:50:42;19.90;77.00
28837;DHT22;50669;50.982;11.022;2024-02-21T06:53:07;19.90;76.80
28837;DHT22;50669;50.982;11.022;2024-02-21T06:55:33;19.90;76.70
28837;DHT22;50669;50.982;11.022;2024-02-21T06:57:59;20.00;76.70
28837;DHT22;50669;50.982;11.022;2024-02-21T07:00:25;20.00;76.60
28837;DHT22;50669;50.982;11.022;2024-02-21T07:02:56;20.00;76.40
28837;DHT22;50669;50.982;11.022;2024-02-21T07:05:23;20.00;76.40
28837;DHT22;50669;50.982;11.022;2024-02-21T07:07:49;20.10;76.30
28837;DHT22;50669;50.982;11.022;2024-02-21T07:10:14;20.10;76.40
28837;DHT22;50669;50.982;11.022;2024-02-21T07:12:40;20.10;76.30
28837;DHT22;50669;50.982;11.022;2024-02-21T07:15:09;20.10;76.10
28837;DHT22;50669;50.982;11.022;2024-02-21T07:17:37;20.10;76.10
28837;DHT22;50669;50.982;11.022;2024-02-21T07:20:03;20.10;76.00
28837;DHT22;50669;50.982;11.022;2024-02-21T07:22:28;20.10;76.00
28837;DHT22;50669;50.982;11.022;2024-02-21T07:24:57;20.10;75.90
28837;DHT22;50669;50.982;11.022;2024-02-21T07:27:22;20.10;75.90
28837;DHT22;50669;50.982;11.022;2024-02-21T07:29:48;20.20;75.90
28837;DHT22;50669;50.982;11.022;2024-02-21T07:32:17;20.20;75.80
28837;DHT22;50669;50.982;11.022;2024-02-21T07:34:43;20.20;75.70
28837;DHT22;50669;50.982;11.022;2024-02-21T07:37:11;20.20;75.70
28837;DHT22;50669;50.982;11.022;2024-02-21T07:39:37;20.20;75.60
28837;DHT22;50669;50.982;11.022;2024-02-21T07:42:03;20.20;75.60
28837;DHT22;50669;50.982;11.022;2024-02-21T07:44:31;20.20;75.60
28837;DHT22;50669;50.982;11.022;2024-02-21T07:47:00;20.20;75.60
28837;DHT22;50669;50.982;11.022;2024-02-21T07:49:25;20.20;75.50
28837;DHT22;50669;50.982;11.022;2024-02-21T07:51:51;20.20;75.50
28837;DHT22;50669;50.982;11.022;2024-02-21T07:54:20;20.20;75.40
28837;DHT22;50669;50.982;11.022;2024-02-21T07:56:45;20.20;75.40
28837;DHT22;50669;50.982;11.022;2024-02-21T07:59:13;20.20;75.30
28837;DHT22;50669;50.982;11.022;2024-02-21T08:01:42;20.20;75.30
28837;DHT22;50669;50.982;11.022;2024-02-21T08:04:08;20.20;75.20
28837;DHT22;50669;50.982;11.022;2024-02-21T08:06:33;20.20;75.30
28837;DHT22;50669;50.982;11.022;2024-02-21T08:08:59;20.30;75.20
28837;DHT22;50669;50.982;11.022;2024-02-21T08:11:26;20.20;75.20
28837;DHT22;50669;50.982;11.022;2024-02-21T08:13:51;20.30;75.20
28837;DHT22;50669;50.982;11.022;2024-02-21T08:16:19;20.30;75.10
28837;DHT22;50669;50.982;11.022;2024-02-21T08:18:45;20.30;75.20
28837;DHT22;50669;50.982;11.022;2024-02-21T08:21:10;20.20;75.10
28837;DHT22;50669;50.982;11.022;2024-02-21T08:23:36;20.30;75.00
28837;DHT22;50669;50.982;11.022;2024-02-21T08:26:06;20.20;75.00
28837;DHT22;50669;50.982;11.022;2024-02-21T08:28:32;20.20;75.00
28837;DHT22;50669;50.982;11.022;2024-02-21T08:30:57;20.20;75.00
28837;DHT22;50669;50.982;11.022;2024-02-21T08:33:25;20.30;74.90
28837;DHT22;50669;50.982;11.022;2024-02-21T08:35:52;20.30;74.90
28837;DHT22;50669;50.982;11.022;2024-02-21T08:38:19;20.30;74.90
28837;DHT22;50669;50.982;11.022;2024-02-21T08:40:47;20.30;74.90
28837;DHT22;50669;50.982;11.022;2024-02-21T08:43:14;20.20;74.80
28837;DHT22;50669;50.982;11.022;2024-02-21T08:45:39;20.30;74.90
28837;DHT22;50669;50.982;11.022;2024-02-21T08:48:05;20.30;74.80
28837;DHT22;50669;50.982;11.022;2024-02-21T08:50:31;20.30;74.70
28837;DHT22;50669;50.982;11.022;2024-02-21T08:52:57;20.30;74.80
28837;DHT22;50669;50.982;11.022;2024-02-21T08:55:23;20.30;74.70
28837;DHT22;50669;50.982;11.022;2024-02-21T08:57:51;20.30;74.70
28837;DHT22;50669;50.982;11.022;2024-02-21T09:00:17;20.30;74.70
28837;DHT22;50669;50.982;11.022;2024-02-21T09:02:43;20.30;74.70
28837;DHT22;50669;50.982;11.022;2024-02-21T09:05:09;20.20;74.60
28837;DHT22;50669;50.982;11.022;2024-02-21T09:07:36;20.20;74.50
28837;DHT22;50669;50.982;11.022;2024-02-21T09:10:02;20.20;74.50
28837;DHT22;50669;50.982;11.022;2024-02-21T09:12:30;20.30;74.60
28837;DHT22;50669;50.982;11.022;2024-02-21T09:14:56;20.30;74.60
28837;DHT22;50669;50.982;11.022;2024-02-21T09:17:22;20.30;74.50
28837;DHT22;50669;50.982;11.022;2024-02-21T09:19:48;20.30;74.50
28837;DHT22;50669;50.982;11.022;2024-02-21T09:22:16;20.30;74.50
28837;DHT22;50669;50.982;11.022;2024-02-21T09:24:41;20.20;74.40
28837;DHT22;50669;50.982;11.022;2024-02-21T09:27:10;20.30;74.50
28837;DHT22;50669;50.982;11.022;2024-02-21T09:29:35;20.30;74.40
28837;DHT22;50669;50.982;11.022;2024-02-21T09:32:05;20.30;74.40
28837;DHT22;50669;50.982;11.022;2024-02-21T09:34:30;20.30;75.10
28837;DHT22;50669;50.982;11.022;2024-02-21T09:36:56;20.30;74.30
28837;DHT22;50669;50.982;11.022;2024-02-21T09:39:24;20.30;74.30
28837;DHT22;50669;50.982;11.022;2024-02-21T09:42:02;20.30;74.30
28837;DHT22;50669;50.982;11.022;2024-02-21T09:44:36;20.30;74.20
28837;DHT22;50669;50.982;11.022;2024-02-21T09:47:11;20.30;74.30
28837;DHT22;50669;50.982;11.022;2024-02-21T09:49:40;20.30;74.30
28837;DHT22;50669;50.982;11.022;2024-02-21T09:52:07;20.30;74.30
28837;DHT22;50669;50.982;11.022;2024-02-21T09:54:36;20.30;74.20
28837;DHT22;50669;50.982;11.022;2024-02-21T09:57:05;20.30;74.20
28837;DHT22;50669;50.982;11.022;2024-02-21T09:59:32;20.30;74.10
28837;DHT22;50669;50.982;11.022;2024-02-21T10:01:58;20.30;74.10
28837;DHT22;50669;50.982;11.022;2024-02-21T10:04:30;20.30;74.10
28837;DHT22;50669;50.982;11.022;2024-02-21T10:06:58;20.20;74.00
28837;DHT22;50669;50.982;11.022;2024-02-21T10:09:24;20.30;74.10
28837;DHT22;50669;50.982;11.022;2024-02-21T10:11:53;20.30;74.10
28837;DHT22;50669;50.982;11.022;2024-02-21T10:14:22;20.30;74.10
28837;DHT22;50669;50.982;11.022;2024-02-21T10:16:57;20.30;74.00
28837;DHT22;50669;50.982;11.022;2024-02-21T10:19:28;20.30;74.00
28837;DHT22;50669;50.982;11.022;2024-02-21T10:22:04;20.30;74.70
28837;DHT22;50669;50.982;11.022;2024-02-21T10:24:33;20.30;73.90
28837;DHT22;50669;50.982;11.022;2024-02-21T10:27:03;20.30;73.90
28837;DHT22;50669;50.982;11.022;2024-02-21T10:29:34;20.30;73.80
28837;DHT22;50669;50.982;11.022;2024-02-21T10:34:34;20.30;73.80
28837;DHT22;50669;50.982;11.022;2024-02-21T10:37:10;20.30;73.70
28837;DHT22;50669;50.982;11.022;2024-02-21T10:39:41;20.30;73.70
28837;DHT22;50669;50.982;11.022;2024-02-21T10:42:10;20.30;73.60
28837;DHT22;50669;50.982;11.022;2024-02-21T10:44:40;20.30;73.60
28837;DHT22;50669;50.982;11.022;2024-02-21T10:47:11;20.30;73.60
28837;DHT22;50669;50.982;11.022;2024-02-21T10:49:41;20.30;73.50
28837;DHT22;50669;50.982;11.022;2024-02-21T10:54:59;20.30;73.50
28837;DHT22;50669;50.982;11.022;2024-02-21T10:57:29;20.30;73.50
28837;DHT22;50669;50.982;11.022;2024-02-21T10:59:55;20.30;73.40
28837;DHT22;50669;50.982;11.022;2024-02-21T11:02:23;20.30;73.50
28837;DHT22;50669;50.982;11.022;2024-02-21T11:04:50;20.30;73.40
28837;DHT22;50669;50.982;11.022;2024-02-21T11:07:18;20.30;73.40
28837;DHT22;50669;50.982;11.022;2024-02-21T11:09:51;20.30;73.40
28837;DHT22;50669;50.982;11.022;2024-02-21T11:12:21;20.40;73.40
28837;DHT22;50669;50.982;11.022;2024-02-21T11:14:49;20.30;73.40
28837;DHT22;50669;50.982;11.022;2024-02-21T11:17:19;20.40;73.40
28837;DHT22;50669;50.982;11.022;2024-02-21T11:19:47;20.40;73.40
28837;DHT22;50669;50.982;11.022;2024-02-21T11:22:20;20.40;73.30
28837;DHT22;50669;50.982;11.022;2024-02-21T11:24:50;20.40;73.30
28837;DHT22;50669;50.982;11.022;2024-02-21T11:27:18;20.40;73.20
28837;DHT22;50669;50.982;11.022;2024-02-21T11:29:49;20.40;73.10
28837;DHT22;50669;50.982;11.022;2024-02-21T11:32:22;20.40;73.10
28837;DHT22;50669;50.982;11.022;2024-02-21T11:34:57;20.50;73.10
28837;DHT22;50669;50.982;11.022;2024-02-21T11:37:32;20.50;73.10
28837;DHT22;50669;50.982;11.022;2024-02-21T11:40:04;20.50;72.90
28837;DHT22;50669;50.982;11.022;2024-02-21T11:42:32;20.50;72.90
28837;DHT22;50669;50.982;11.022;2024-02-21T11:45:02;20.50;72.90
28837;DHT22;50669;50.982;11.022;2024-02-21T11:47:34;20.50;72.80
28837;DHT22;50669;50.982;11.022;2024-02-21T11:50:04;20.50;72.80
28837;DHT22;50669;50.982;11.022;2024-02-21T11:52:30;20.50;72.70
28837;DHT22;50669;50.982;11.022;2024-02-21T11:54:56;20.60;72.70
28837;DHT22;50669;50.982;11.022;2024-02-21T11:57:32;20.60;72.60
28837;DHT22;50669;50.982;11.022;2024-02-21T12:00:13;20.60;72.60
28837;DHT22;50669;50.982;11.022;2024-02-21T12:02:40;20.60;72.50
28837;DHT22;50669;50.982;11.022;2024-02-21T12:05:09;20.60;72.50
28837;DHT22;50669;50.982;11.022;2024-02-21T12:07:36;20.60;72.50
28837;DHT22;50669;50.982;11.022;2024-02-21T12:10:10;20.60;72.50
28837;DHT22;50669;50.982;11.022;2024-02-21T12:12:39;20.60;72.40
28837;DHT22;50669;50.982;11.022;2024-02-21T12:15:08;20.60;72.50
28837;DHT22;50669;50.982;11.022;2024-02-21T12:17:36;20.60;72.30
28837;DHT22;50669;50.982;11.022;2024-02-21T12:20:03;20.70;72.40
28837;DHT22;50669;50.982;11.022;2024-02-21T12:22:36;20.70;72.30
28837;DHT22;50669;50.982;11.022;2024-02-21T12:27:41;20.70;72.20
28837;DHT22;50669;50.982;11.022;2024-02-21T12:30:09;20.70;72.10
28837;DHT22;50669;50.982;11.022;2024-02-21T12:32:36;20.80;72.00
28837;DHT22;50669;50.982;11.022;2024-02-21T12:35:01;20.90;71.90
28837;DHT22;50669;50.982;11.022;2024-02-21T12:37:28;20.90;71.70
28837;DHT22;50669;50.982;11.022;2024-02-21T12:39:54;21.00;72.30
28837;DHT22;50669;50.982;11.022;2024-02-21T12:42:20;21.00;71.40
28837;DHT22;50669;50.982;11.022;2024-02-21T12:44:48;21.00;71.40
28837;DHT22;50669;50.982;11.022;2024-02-21T12:47:13;21.10;71.30
28837;DHT22;50669;50.982;11.022;2024-02-21T12:49:39;21.10;71.20
28837;DHT22;50669;50.982;11.022;2024-02-21T12:52:07;21.10;71.10
28837;DHT22;50669;50.982;11.022;2024-02-21T12:54:36;21.10;71.10
28837;DHT22;50669;50.982;11.022;2024-02-21T12:57:01;21.20;71.00
28837;DHT22;50669;50.982;11.022;2024-02-21T12:59:29;21.20;71.00
28837;DHT22;50669;50.982;11.022;2024-02-21T13:01:57;21.20;70.90
28837;DHT22;50669;50.982;11.022;2024-02-21T13:04:23;21.20;70.90
28837;DHT22;50669;50.982;11.022;2024-02-21T13:06:49;21.30;70.90
28837;DHT22;50669;50.982;11.022;2024-02-21T13:09:17;21.30;70.70
28837;DHT22;50669;50.982;11.022;2024-02-21T13:11:45;21.30;70.70
28837;DHT22;50669;50.982;11.022;2024-02-21T13:14:11;21.30;70.70
28837;DHT22;50669;50.982;11.022;2024-02-21T13:16:39;21.30;71.40
28837;DHT22;50669;50.982;11.022;2024-02-21T13:19:06;21.40;70.70
28837;DHT22;50669;50.982;11.022;2024-02-21T13:21:36;21.30;70.60
28837;DHT22;50669;50.982;11.022;2024-02-21T13:24:02;21.30;70.70
28837;DHT22;50669;50.982;11.022;2024-02-21T13:26:28;21.20;70.70
28837;DHT22;50669;50.982;11.022;2024-02-21T13:28:54;21.20;70.90
28837;DHT22;50669;50.982;11.022;2024-02-21T13:31:23;21.10;70.90
28837;DHT22;50669;50.982;11.022;2024-02-21T13:33:48;21.10;71.10
28837;DHT22;50669;50.982;11.022;2024-02-21T13:36:14;21.00;71.10
28837;DHT22;50669;50.982;11.022;2024-02-21T13:38:42;21.10;71.20
28837;DHT22;50669;50.982;11.022;2024-02-21T13:41:08;21.00;71.20
28837;DHT22;50669;50.982;11.022;2024-02-21T13:43:34;21.00;71.20
28837;DHT22;50669;50.982;11.022;2024-02-21T13:46:03;21.00;71.20
28837;DHT22;50669;50.982;11.022;2024-02-21T13:48:30;21.00;71.20
28837;DHT22;50669;50.982;11.022;2024-02-21T13:51:01;21.00;71.20
28837;DHT22;50669;50.982;11.022;2024-02-21T13:53:30;21.00;71.30
28837;DHT22;50669;50.982;11.022;2024-02-21T13:55:56;21.00;71.30
28837;DHT22;50669;50.982;11.022;2024-02-21T13:58:24;21.00;71.30
28837;DHT22;50669;50.982;11.022;2024-02-21T14:00:51;21.00;71.30
28837;DHT22;50669;50.982;11.022;2024-02-21T14:03:17;21.00;71.40
28837;DHT22;50669;50.982;11.022;2024-02-21T14:05:44;21.00;71.30
28837;DHT22;50669;50.982;11.022;2024-02-21T14:08:14;21.00;71.40
28837;DHT22;50669;50.982;11.022;2024-02-21T14:10:40;20.90;71.30
28837;DHT22;50669;50.982;11.022;2024-02-21T14:13:08;20.90;71.30
28837;DHT22;50669;50.982;11.022;2024-02-21T14:15:33;21.00;71.40
28837;DHT22;50669;50.982;11.022;2024-02-21T14:17:59;20.90;71.30
28837;DHT22;50669;50.982;11.022;2024-02-21T14:20:25;20.90;71.20
28837;DHT22;50669;50.982;11.022;2024-02-21T14:22:55;20.90;71.30
28837;DHT22;50669;50.982;11.022;2024-02-21T14:25:21;20.90;71.30
28837;DHT22;50669;50.982;11.022;2024-02-21T14:27:46;20.90;71.20
28837;DHT22;50669;50.982;11.022;2024-02-21T14:30:12;20.90;71.20
28837;DHT22;50669;50.982;11.022;2024-02-21T14:32:43;20.90;71.20
28837;DHT22;50669;50.982;11.022;2024-02-21T14:35:11;20.90;71.10
28837;DHT22;50669;50.982;11.022;2024-02-21T14:37:36;20.90;71.20
28837;DHT22;50669;50.982;11.022;2024-02-21T14:40:02;20.90;71.20
28837;DHT22;50669;50.982;11.022;2024-02-21T14:42:31;20.90;71.20
28837;DHT22;50669;50.982;11.022;2024-02-21T14:44:56;20.90;71.30
28837;DHT22;50669;50.982;11.022;2024-02-21T14:47:32;20.90;71.20
28837;DHT22;50669;50.982;11.022;2024-02-21T14:49:58;20.80;71.20
28837;DHT22;50669;50.982;11.022;2024-02-21T14:52:24;20.90;71.30
28837;DHT22;50669;50.982;11.022;2024-02-21T14:54:50;20.80;71.20
28837;DHT22;50669;50.982;11.022;2024-02-21T14:57:20;20.80;71.20
28837;DHT22;50669;50.982;11.022;2024-02-21T14:59:50;20.80;71.20
28837;DHT22;50669;50.982;11.022;2024-02-21T15:02:24;20.80;71.20
28837;DHT22;50669;50.982;11.022;2024-02-21T15:04:49;20.80;71.20
28837;DHT22;50669;50.982;11.022;2024-02-21T15:07:19;20.80;71.20
28837;DHT22;50669;50.982;11.022;2024-02-21T15:09:45;20.80;71.30
28837;DHT22;50669;50.982;11.022;2024-02-21T15:12:11;20.80;71.30
28837;DHT22;50669;50.982;11.022;2024-02-21T15:14:36;20.80;71.20
28837;DHT22;50669;50.982;11.022;2024-02-21T15:17:02;20.80;71.30
28837;DHT22;50669;50.982;11.022;2024-02-21T15:19:30;20.70;71.20
28837;DHT22;50669;50.982;11.022;2024-02-21T15:21:58;20.70;71.20
28837;DHT22;50669;50.982;11.022;2024-02-21T15:24:24;20.70;71.20
28837;DHT22;50669;50.982;11.022;2024-02-21T15:26:50;20.70;71.30